This is the latest recevied weather packets stored in our database for station/object WB4YDL. If no packets are shown the sender has not sent any weather packets the latest 10 day(s).
| Time | Temp. | Humidity | Pressure | Rain* | Wind** | Luminosity | Snow |
|---|---|---|---|---|---|---|---|
| 1777739787 | 18.33° C | 52% | 1012.6 hPa | 0 mm | - | 823 W/m² | - |
| 1777739483 | 17.78° C | 52% | 1012.7 hPa | 0 mm | - | 846 W/m² | - |
| 1777739180 | 17.78° C | 53% | 1012.9 hPa | 0 mm | - | 694 W/m² | - |
| 1777738877 | 17.22° C | 55% | 1012.7 hPa | 0 mm | - | 787 W/m² | - |
| 1777738574 | 17.78° C | 55% | 1012.7 hPa | 0 mm | - | 757 W/m² | - |
| 1777738271 | 16.67° C | 56% | 1012.7 hPa | 0 mm | - | 748 W/m² | - |
| 1777737970 | 17.22° C | 55% | 1013 hPa | 0 mm | - | 749 W/m² | - |
| 1777737668 | 16.67° C | 58% | 1012.8 hPa | 0 mm | - | 753 W/m² | - |
| 1777737366 | 16.11° C | 56% | 1012.8 hPa | 0 mm | - | 342 W/m² | - |
| 1777737063 | 16.67° C | 54% | 1012.8 hPa | 0 mm | - | 257 W/m² | - |
| 1777736758 | 17.22° C | 52% | 1012.8 hPa | 0 mm | - | 350 W/m² | - |
| 1777736130 | 16.67° C | 54% | 1013.1 hPa | 0 mm | - | 708 W/m² | - |
| 1777735828 | 16.11° C | 57% | 1013 hPa | 0 mm | - | 666 W/m² | - |
| 1777735525 | 16.11° C | 54% | 1012.8 hPa | 0 mm | - | 651 W/m² | - |
| 1777735222 | 15.56° C | 59% | 1013 hPa | 0 mm | - | 645 W/m² | - |
| 1777734919 | 15.56° C | 62% | 1012.8 hPa | 0 mm | - | 628 W/m² | - |
| 1777734616 | 15.56° C | 63% | 1013.2 hPa | 0 mm | - | 626 W/m² | - |
| 1777734314 | 15° C | 62% | 1013 hPa | 0 mm | - | 621 W/m² | - |
| 1777734010 | 15.56° C | 61% | 1013.1 hPa | 0 mm | - | 299 W/m² | - |
| 1777733706 | 16.11° C | 57% | 1013 hPa | 0 mm | - | 169 W/m² | - |
| 1777733403 | 16.67° C | 57% | 1012.7 hPa | 0 mm | - | 218 W/m² | - |
| 1777733099 | 16.11° C | 60% | 1012.9 hPa | 0 mm | - | 466 W/m² | - |
| 1777732795 | 15.56° C | 58% | 1012.8 hPa | 0 mm | - | 780 W/m² | - |
| 1777732493 | 15.56° C | 58% | 1012.9 hPa | 0 mm | - | 570 W/m² | - |
| 1777732191 | 15.56° C | 58% | 1012.9 hPa | 0 mm | - | 563 W/m² | - |
* Rain latest hour (hover to see other rain measurements)
** Current wind speed in m/s (hover to see current wind gust speed)